Latest Weather Observations for Mount Hotham AWS

IDV60801

Issued at 8:05 am EST Thursday 24 April 2014 (issued every 30 minutes, with the page automatically refreshed every 10 minutes)

About weather observations | Map of weather stations | Latest weather observations for VIC | Other Formats
Station Details ID: 083085 Name: MOUNT HOTHAM Lat: -36.98 Lon: 147.13 Height: 1849.0 m
Data from the previous 72 hours. | See also: Recent months at Mount Hotham AWS
Date/Time
EST
Temp
°C
App
Temp
°C
Dew
Point
Rel
Hum
%
Delta-T
°C
Wind Press
QNH
hPa
Press
MSL
hPa
Rain
since 9 am
mm
Dir
 
Spd
km/h
Gust
km/h
Spd
kts
Gust
kts
24/08:00am 1.0 -8.0 0.0 93 0.4 NW 37 56 20 30 - - 0.8
24/07:46am 1.2 -8.2 -0.3 90 0.6 NW 39 59 21 32 - - 0.8
24/07:30am 1.0 -8.4 0.1 94 0.4 NW 39 54 21 29 - - 0.8
24/07:08am 0.8 -7.7 0.7 99 0.0 NW 35 54 19 29 - - 0.8
24/07:00am 0.6 -8.0 0.5 99 0.0 NW 35 50 19 27 - - 0.8
24/06:30am 0.7 -8.6 0.6 99 0.0 NW 39 50 21 27 - - 0.8
24/06:15am 1.0 -8.3 0.9 99 0.0 NW 39 57 21 31 - - 0.8
24/06:00am 1.3 -7.9 1.2 99 0.0 NNW 39 50 21 27 - - 0.8
24/05:30am 1.3 -8.7 1.2 99 0.0 NNW 43 54 23 29 - - 0.8
24/05:00am 1.0 -9.2 0.9 99 0.0 NNW 44 56 24 30 - - 0.8
24/04:30am 1.3 -8.9 0.0 91 0.5 NNW 43 54 23 29 - - 0.8
24/04:00am 1.4 -8.5 -1.0 84 1.0 NNW 41 54 22 29 - - 0.8
24/03:30am 1.6 -8.2 -3.3 70 2.0 NNW 39 54 21 29 - - 0.8
24/03:00am 1.7 -8.5 -3.4 69 2.0 NNW 41 54 22 29 - - 0.8
24/02:30am 1.7 -8.4 -2.1 76 1.5 NNW 41 56 22 30 - - 0.8
24/02:00am 1.7 -8.0 0.5 92 0.5 NNW 41 54 22 29 - - 0.8
24/01:30am 2.0 -7.5 1.9 99 0.0 NNW 41 48 22 26 - - 0.8
24/01:00am 2.4 -7.0 2.3 99 0.0 NNW 41 50 22 27 - - 0.8
24/12:30am 2.4 -7.4 2.3 99 0.0 NNW 43 50 23 27 - - 0.8
24/12:00am 2.4 -7.4 2.3 99 0.0 NNW 43 50 23 27 - - 0.8
 
Date/Time
EST
Temp
°C
App
Temp
°C
Dew
Point
Rel
Hum
%
Delta-T
°C
Wind Press
QNH
hPa
Press
MSL
hPa
Rain
since 9 am
mm
Dir
 
Spd
km/h
Gust
km/h
Spd
kts
Gust
kts
23/11:30pm 2.6 -7.2 2.5 99 0.0 NNW 43 54 23 29 - - 0.8
23/11:00pm 2.7 -7.2 2.6 99 0.0 N 44 52 24 28 - - 0.8
23/10:30pm 2.6 -7.3 2.5 99 0.0 NNW 44 56 24 30 - - 0.8
23/10:00pm 2.9 -6.8 2.8 99 0.0 NNW 43 54 23 29 - - 0.8
23/09:30pm 3.5 -6.3 3.4 99 0.0 NNW 44 57 24 31 - - 0.8
23/09:00pm 4.2 -5.3 4.1 99 0.0 NNW 43 57 23 31 - - 0.8
23/08:37pm 4.0 -5.5 3.9 99 0.0 NNW 43 63 23 34 - - 0.8
23/08:30pm 4.1 -4.6 4.0 99 0.0 NNW 39 52 21 28 - - 0.6
23/08:00pm 4.1 -4.6 4.0 99 0.0 NNW 39 57 21 31 - - 0.6
23/07:40pm 4.2 -4.5 4.1 99 0.0 NNW 39 57 21 31 - - 0.6
23/07:30pm 4.2 -4.9 4.1 99 0.0 NNW 41 57 22 31 - - 0.6
23/07:07pm 4.3 -3.1 4.2 99 0.0 NNW 32 50 17 27 - - 0.6
23/07:00pm 4.4 -3.5 4.3 99 0.0 NNW 35 50 19 27 - - 0.6
23/06:37pm 4.2 -4.5 4.1 99 0.0 NNW 39 59 21 32 - - 0.6
23/06:30pm 4.3 -4.8 4.2 99 0.0 NNW 41 56 22 30 - - 0.6
23/06:00pm 4.7 -2.8 4.6 99 0.0 NW 33 52 18 28 - - 0.6
23/05:42pm 4.3 -3.6 4.2 99 0.0 NNW 35 54 19 29 - - 0.6
23/05:30pm 4.4 -4.3 4.3 99 0.0 NNW 39 54 21 29 - - 0.6
23/05:00pm 4.4 -4.6 4.3 99 0.0 NNW 41 54 22 29 - - 0.6
23/04:30pm 4.5 -3.8 4.4 99 0.0 NW 37 56 20 30 - - 0.6
23/04:02pm 4.4 -3.5 4.3 99 0.0 NW 35 61 19 33 - - 0.6
23/04:00pm 4.5 -3.4 4.4 99 0.0 NNW 35 48 19 26 - - 0.6
23/03:34pm 4.6 -3.3 4.5 99 0.0 NW 35 54 19 29 - - 0.6
23/03:30pm 4.8 -2.7 4.7 99 0.0 NNW 33 48 18 26 - - 0.6
23/03:05pm 4.6 -4.0 4.5 99 0.0 NW 39 63 21 34 - - 0.6
23/03:00pm 4.7 -3.9 4.6 99 0.0 NW 39 54 21 29 - - 0.6
23/02:30pm 5.1 -3.4 5.0 99 0.0 NW 39 61 21 33 - - 0.6
23/02:02pm 5.0 -2.8 4.9 99 0.0 NW 35 56 19 30 - - 0.6
23/02:00pm 5.1 -2.7 5.0 99 0.0 NW 35 50 19 27 - - 0.6
23/01:39pm 5.0 -3.9 4.9 99 0.0 NW 41 59 22 32 - - 0.6
23/01:30pm 5.2 -3.3 5.1 99 0.0 NW 39 54 21 29 - - 0.6
23/01:13pm 5.2 -3.3 5.1 99 0.0 NW 39 57 21 31 - - 0.6
23/01:00pm 5.0 -3.9 4.9 99 0.0 NW 41 57 22 31 - - 0.4
23/12:31pm 5.1 -3.8 5.0 99 0.0 NNW 41 61 22 33 - - 0.4
23/12:30pm 5.0 -3.9 4.9 99 0.0 NNW 41 56 22 30 - - 0.4
23/12:05pm 5.0 -4.5 4.9 99 0.0 NNW 44 63 24 34 - - 0.4
23/12:00pm 5.1 -4.4 5.0 99 0.0 NNW 44 59 24 32 - - 0.4
23/11:49am 4.9 -5.0 4.8 99 0.0 NNW 46 67 25 36 - - 0.4
23/11:30am 4.9 -5.0 4.8 99 0.0 NNW 46 63 25 34 - - 0.4
23/11:17am 5.0 -4.9 4.9 99 0.0 NNW 46 65 25 35 - - 0.4
23/11:00am 5.0 -4.3 4.9 99 0.0 NNW 43 59 23 32 - - 0.2
23/10:30am 5.0 -4.3 4.9 99 0.0 NNW 43 57 23 31 - - 0.2
23/10:20am 5.0 -4.5 4.9 99 0.0 NNW 44 63 24 34 - - 0.2
23/10:00am 4.8 -4.6 4.7 99 0.0 NNW 43 57 23 31 - - 0.0
23/09:30am 4.8 -5.1 4.7 99 0.0 NNW 46 65 25 35 - - 0.0
23/09:02am 5.1 -5.1 5.0 99 0.0 NNW 48 70 26 38 - - 0.0
23/09:00am 5.0 -4.9 4.9 99 0.0 NNW 46 63 25 34 - - 7.4
23/08:30am 5.0 -5.3 4.9 99 0.0 NNW 48 69 26 37 - - 7.2
23/08:09am 4.9 -5.0 4.8 99 0.0 NNW 46 65 25 35 - - 7.2
23/08:00am 4.9 -5.8 4.8 99 0.0 NNW 50 63 27 34 - - 7.2
23/07:41am 4.9 -6.1 4.8 99 0.0 NNW 52 70 28 38 - - 7.2
23/07:30am 4.9 -5.0 4.8 99 0.0 NNW 46 63 25 34 - - 7.0
23/07:00am 4.7 -4.9 4.6 99 0.0 NNW 44 57 24 31 - - 7.0
23/06:30am 4.5 -6.2 4.4 99 0.0 NNW 50 70 27 38 - - 7.0
23/06:00am 4.6 -6.5 4.5 99 0.0 NNW 52 80 28 43 - - 7.0
23/05:30am 4.5 -6.2 4.4 99 0.0 NNW 50 69 27 37 - - 7.0
23/05:21am 4.5 -5.9 4.4 99 0.0 NNW 48 67 26 36 - - 7.0
23/05:00am 4.4 -6.4 4.3 99 0.0 NNW 50 61 27 33 - - 7.0
23/04:30am 4.2 -6.2 4.1 99 0.0 NNW 48 57 26 31 - - 7.0
23/04:00am 4.3 -6.5 4.2 99 0.0 NNW 50 61 27 33 - - 7.0
23/03:46am 4.4 -6.0 4.3 99 0.0 NNW 48 72 26 39 - - 7.0
23/03:30am 4.5 -6.2 4.4 99 0.0 NNW 50 61 27 33 - - 7.0
23/03:15am 4.3 -6.5 4.2 99 0.0 NNW 50 69 27 37 - - 7.0
23/03:00am 4.4 -7.1 4.3 99 0.0 NNW 54 67 29 36 - - 7.0
23/02:30am 4.7 -7.1 4.6 99 0.0 NNW 56 74 30 40 - - 7.0
23/02:00am 4.5 -6.6 4.4 99 0.0 NNW 52 70 28 38 - - 7.0
23/01:30am 4.8 -6.3 4.7 99 0.0 NNW 52 76 28 41 - - 7.0
23/01:00am 4.8 -5.9 4.7 99 0.0 NNW 50 69 27 37 - - 7.0
23/12:57am 5.0 -5.6 4.9 99 0.0 NNW 50 69 27 37 - - 7.0
23/12:30am 4.8 -5.5 4.7 99 0.0 NNW 48 63 26 34 - - 7.0
23/12:00am 4.7 -6.4 4.6 99 0.0 NNW 52 72 28 39 - - 7.0
 
Date/Time
EST
Temp
°C
App
Temp
°C
Dew
Point
Rel
Hum
%
Delta-T
°C
Wind Press
QNH
hPa
Press
MSL
hPa
Rain
since 9 am
mm
Dir
 
Spd
km/h
Gust
km/h
Spd
kts
Gust
kts
22/11:30pm 4.8 -6.6 4.7 99 0.0 NNW 54 72 29 39 - - 7.0
22/11:28pm 4.8 -6.3 4.7 99 0.0 NNW 52 72 28 39 - - 7.0
22/11:00pm 4.8 -6.3 4.7 99 0.0 NNW 52 69 28 37 - - 6.6
22/10:58pm 4.8 -5.9 4.7 99 0.0 NNW 50 69 27 37 - - 6.4
22/10:30pm 5.0 -5.6 4.9 99 0.0 NNW 50 67 27 36 - - 4.4
22/10:02pm 5.2 -4.1 5.1 99 0.0 NNW 43 61 23 33 - - 4.2
22/10:00pm 5.1 -3.8 5.0 99 0.0 NNW 41 57 22 31 - - 4.2
22/09:30pm 5.1 -4.8 5.0 99 0.0 NNW 46 63 25 34 - - 3.2
22/09:21pm 5.1 -4.4 5.0 99 0.0 NNW 44 63 24 34 - - 3.2
22/09:00pm 5.0 -4.9 4.9 99 0.0 NNW 46 59 25 32 - - 2.6
22/08:30pm 5.1 -4.4 5.0 99 0.0 NNW 44 57 24 31 - - 2.6
22/08:00pm 5.1 -3.1 5.0 99 0.0 NNW 37 52 20 28 - - 2.2
22/07:30pm 5.1 -4.2 5.0 99 0.0 NNW 43 56 23 30 - - 1.2
22/07:00pm 5.0 -4.3 4.9 99 0.0 NNW 43 52 23 28 - - 1.0
22/06:30pm 4.9 -4.1 4.8 99 0.0 NNW 41 50 22 27 - - 0.8
22/06:00pm 4.9 -3.7 4.8 99 0.0 NNW 39 50 21 27 - - 0.6
22/05:30pm 5.2 -2.9 5.1 99 0.0 NNW 37 46 20 25 - - 0.4
22/05:00pm 5.4 -3.1 5.0 97 0.2 NNW 39 50 21 27 - - 0.4
22/04:30pm 5.6 -2.6 5.0 96 0.3 NNW 37 48 20 26 - - 0.4
22/04:00pm 5.8 -2.4 4.9 94 0.4 NNW 37 52 20 28 - - 0.4
22/03:33pm 5.9 -3.1 4.7 92 0.6 NNW 41 59 22 32 - - 0.4
22/03:30pm 5.8 -3.1 4.9 94 0.4 NNW 41 57 22 31 - - 0.4
22/03:00pm 5.6 -3.8 4.6 93 0.5 NNW 43 61 23 33 - - 0.4
22/02:30pm 5.2 -4.1 4.9 98 0.1 NNW 43 54 23 29 - - 0.4
22/02:00pm 5.1 -4.2 5.0 99 0.0 NNW 43 56 23 30 - - 0.4
22/01:30pm 4.3 -4.8 4.2 99 0.0 NNW 41 54 22 29 - - 0.2
22/01:00pm 3.8 -4.6 3.7 99 0.0 NNW 37 50 20 27 - - 0.2
22/12:30pm 4.4 -4.3 4.0 97 0.2 NW 39 56 21 30 - - 0.0
22/12:16pm 4.4 -4.8 3.7 95 0.3 NNW 41 63 22 34 - - 0.0
22/12:00pm 4.2 -5.4 3.5 95 0.3 NNW 43 57 23 31 - - 0.0
22/11:30am 5.2 -5.3 3.5 89 0.8 NNW 48 61 26 33 - - 0.0
22/11:00am 4.3 -5.5 3.1 92 0.6 NNW 44 59 24 32 - - 0.0
22/10:30am 3.9 -6.0 2.9 93 0.5 NNW 44 54 24 29 - - 0.0
22/10:00am 4.3 -5.4 2.8 90 0.7 NNW 43 61 23 33 - - 0.0
22/09:55am 4.9 -4.8 2.9 87 0.9 NNW 43 61 23 33 - - 0.0
22/09:30am 3.7 -6.2 2.7 93 0.5 NNW 44 59 24 32 - - 0.0
22/09:00am 3.8 -6.1 2.6 92 0.5 NNW 44 61 24 33 - - 0.2
22/08:30am 3.7 -7.8 2.5 92 0.5 NNW 52 67 28 36 - - 0.2
22/08:00am 4.0 -7.9 2.2 88 0.8 NNW 54 67 29 36 - - 0.2
22/07:33am 3.5 -8.1 2.0 90 0.7 NNW 52 70 28 38 - - 0.2
22/07:30am 3.4 -8.5 1.9 90 0.7 NNW 54 70 29 38 - - 0.2
22/07:05am 3.0 -8.2 1.7 91 0.6 NNW 50 69 27 37 - - 0.2
22/07:00am 3.0 -8.6 1.5 90 0.7 NNW 52 65 28 35 - - 0.2
22/06:35am 3.1 -8.2 1.5 89 0.7 NNW 50 69 27 37 - - 0.2
22/06:30am 3.2 -8.4 1.6 89 0.7 NNW 52 69 28 37 - - 0.2
22/06:00am 3.4 -7.9 1.4 87 0.9 NNW 50 69 27 37 - - 0.2
22/05:56am 3.3 -8.0 1.2 86 0.9 NNW 50 69 27 37 - - 0.2
22/05:30am 3.5 -7.8 1.4 86 0.9 NNW 50 61 27 33 - - 0.2
22/05:03am 3.6 -7.4 0.8 82 1.2 NNW 48 67 26 36 - - 0.2
22/05:00am 3.6 -7.4 0.7 81 1.3 NNW 48 61 26 33 - - 0.2
22/04:45am 4.2 -6.4 1.1 80 1.4 NNW 46 65 25 35 - - 0.2
22/04:30am 4.0 -6.1 0.5 78 1.5 NNW 43 57 23 31 - - 0.2
22/04:00am 4.1 -5.8 -0.9 70 2.1 NNW 41 52 22 28 - - 0.2
22/03:30am 4.7 -5.3 -1.3 65 2.5 NNW 41 52 22 28 - - 0.2
22/03:00am 5.0 -5.1 -2.3 59 3.0 NNW 41 52 22 28 - - 0.2
22/02:30am 5.6 -4.2 -2.7 55 3.4 NNW 39 48 21 26 - - 0.2
22/02:00am 5.8 -4.0 -3.0 53 3.6 NNW 39 50 21 27 - - 0.2
22/01:30am 5.9 -3.4 -2.4 55 3.4 NNW 37 44 20 24 - - 0.2
22/01:01am 5.6 -3.8 -2.5 56 3.3 NNW 37 56 20 30 - - 0.2
22/01:00am 5.7 -4.0 -2.4 56 3.3 NNW 39 56 21 30 - - 0.2
22/12:30am 5.5 -3.8 -2.1 58 3.1 NNW 37 50 20 27 - - 0.0
22/12:00am 4.8 -4.1 -2.1 61 2.8 NNW 35 44 19 24 - - 0.0
 
Date/Time
EST
Temp
°C
App
Temp
°C
Dew
Point
Rel
Hum
%
Delta-T
°C
Wind Press
QNH
hPa
Press
MSL
hPa
Rain
since 9 am
mm
Dir
 
Spd
km/h
Gust
km/h
Spd
kts
Gust
kts
21/11:30pm 5.5 -2.9 -1.0 63 2.7 NNW 33 43 18 23 - - 0.0
21/11:00pm 5.6 -2.7 -0.2 66 2.5 NNW 33 41 18 22 - - 0.0
21/10:30pm 6.0 -2.2 0.1 66 2.6 NNW 33 44 18 24 - - 0.0
21/10:00pm 6.4 -1.7 0.7 67 2.5 NNW 33 46 18 25 - - 0.0
21/09:30pm 6.1 -1.9 0.6 68 2.4 NNW 32 41 17 22 - - 0.0
21/09:00pm 6.4 -1.5 0.9 68 2.5 NNW 32 39 17 21 - - 0.0
21/08:30pm 6.2 -0.6 0.9 69 2.4 NNW 26 35 14 19 - - 0.0
21/08:00pm 5.4 -0.4 0.2 69 2.3 NNW 20 24 11 13 - - 0.0
21/07:30pm 4.8 -1.2 -1.2 65 2.5 NNW 20 28 11 15 - - 0.0
21/07:00pm 4.0 -2.8 -1.8 66 2.4 NNW 24 32 13 17 - - 0.0
21/06:30pm 3.7 -3.1 -1.6 68 2.2 NNW 24 32 13 17 - - 0.0
21/06:00pm 4.0 -2.0 -1.2 69 2.2 NNW 20 26 11 14 - - 0.0
21/05:30pm 4.7 -1.0 -0.7 68 2.3 NNW 19 24 10 13 - - 0.0
21/05:00pm 5.2 -0.4 0.2 70 2.2 NNW 19 24 10 13 - - 0.0
21/04:30pm 4.9 -0.8 -1.1 65 2.5 NNW 19 24 10 13 - - 0.0
21/04:00pm 5.0 -1.2 -0.2 69 2.2 NNW 22 28 12 15 - - 0.0
21/03:30pm 6.0 0.1 -0.5 63 2.8 NNW 20 24 11 13 - - 0.0
21/03:00pm 6.5 0.7 0.0 63 2.8 NNW 20 26 11 14 - - 0.0
21/02:30pm 6.4 0.5 -1.0 59 3.2 NW 20 26 11 14 - - 0.0
21/02:00pm 5.4 -1.7 -1.1 63 2.7 NW 26 32 14 17 - - 0.0
21/01:30pm 5.8 -1.0 0.8 70 2.2 NW 26 32 14 17 - - 0.0
21/01:00pm 5.6 -1.5 -1.1 62 2.8 NW 26 32 14 17 - - 0.0
21/12:30pm 6.3 -0.9 0.6 67 2.5 NW 28 35 15 19 - - 0.0
21/12:00pm 5.8 -1.2 -0.3 65 2.6 NNW 26 33 14 18 - - 0.0
21/11:30am 6.6 0.0 -0.1 62 2.9 NNW 24 30 13 16 - - 0.0
21/11:00am 5.9 -1.2 -1.3 60 3.0 NNW 26 32 14 17 - - 0.0
21/10:30am 5.0 -1.1 0.6 73 1.9 N 22 28 12 15 - - 0.0
21/10:00am 4.3 -1.3 1.0 79 1.4 N 20 26 11 14 - - 0.0
21/09:30am 3.8 -1.6 1.4 84 1.1 N 19 24 10 13 - - 0.0
21/09:00am 3.0 -2.4 1.1 87 0.8 N 19 20 10 11 - - 0.2
21/08:30am 3.0 -2.0 1.2 88 0.8 N 17 19 9 10 - - 0.2

Other Formats:

Comma delimited format used in spreadsheet applications
http://www.bom.gov.au/fwo/IDV60801/IDV60801.94906.axf

JavaScript Object Notation format (JSON) in row-major order
http://www.bom.gov.au/fwo/IDV60801/IDV60801.94906.json